sensor_id;sensor_type;location;lat;lon;timestamp;pressure;altitude;pressure_sealevel;temperature;humidity
46756;BME280;32506;52.826;-1.192;2022-09-09T00:00:20;99634.53;;;15.77;47.20
46756;BME280;32506;52.826;-1.192;2022-09-09T00:03:19;99639.13;;;15.77;47.22
46756;BME280;32506;52.826;-1.192;2022-09-09T00:06:20;99644.78;;;15.70;47.16
46756;BME280;32506;52.826;-1.192;2022-09-09T00:11:24;99653.16;;;15.64;47.15
46756;BME280;32506;52.826;-1.192;2022-09-09T00:13:53;99650.16;;;15.60;47.17
46756;BME280;32506;52.826;-1.192;2022-09-09T00:16:24;99654.47;;;15.56;46.95
46756;BME280;32506;52.826;-1.192;2022-09-09T00:21:45;99648.28;;;15.50;47.07
46756;BME280;32506;52.826;-1.192;2022-09-09T00:24:29;99641.56;;;15.48;47.11
46756;BME280;32506;52.826;-1.192;2022-09-09T00:27:13;99645.06;;;15.43;47.13
46756;BME280;32506;52.826;-1.192;2022-09-09T00:29:46;99642.09;;;15.39;46.94
46756;BME280;32506;52.826;-1.192;2022-09-09T00:32:22;99649.59;;;15.37;47.01
46756;BME280;32506;52.826;-1.192;2022-09-09T00:34:53;99652.03;;;15.34;47.11
46756;BME280;32506;52.826;-1.192;2022-09-09T00:37:22;99644.25;;;15.32;46.98
46756;BME280;32506;52.826;-1.192;2022-09-09T00:39:51;99636.69;;;15.29;46.91
46756;BME280;32506;52.826;-1.192;2022-09-09T00:47:53;99649.03;;;15.20;46.91
46756;BME280;32506;52.826;-1.192;2022-09-09T00:53:06;99647.16;;;15.15;46.81
46756;BME280;32506;52.826;-1.192;2022-09-09T00:56:16;99642.31;;;15.12;46.88
46756;BME280;32506;52.826;-1.192;2022-09-09T00:59:03;99650.91;;;15.09;46.82
46756;BME280;32506;52.826;-1.192;2022-09-09T01:01:32;99642.81;;;15.04;46.96
46756;BME280;32506;52.826;-1.192;2022-09-09T01:03:57;99641.47;;;15.01;46.98
46756;BME280;32506;52.826;-1.192;2022-09-09T01:06:29;99646.31;;;14.99;46.86
46756;BME280;32506;52.826;-1.192;2022-09-09T01:12:05;99639.84;;;14.95;46.77
46756;BME280;32506;52.826;-1.192;2022-09-09T01:17:11;99652.47;;;14.89;46.94
46756;BME280;32506;52.826;-1.192;2022-09-09T01:25:20;99652.72;;;14.83;46.90
46756;BME280;32506;52.826;-1.192;2022-09-09T01:27:49;99648.69;;;14.80;46.79
46756;BME280;32506;52.826;-1.192;2022-09-09T01:30:17;99649.19;;;14.77;46.94
46756;BME280;32506;52.826;-1.192;2022-09-09T01:32:44;99647.59;;;14.76;46.87
46756;BME280;32506;52.826;-1.192;2022-09-09T01:36:04;99647.84;;;14.74;46.87
46756;BME280;32506;52.826;-1.192;2022-09-09T01:38:22;99649.19;;;14.72;46.79
46756;BME280;32506;52.826;-1.192;2022-09-09T01:40:48;99641.34;;;14.70;47.19
46756;BME280;32506;52.826;-1.192;2022-09-09T01:43:14;99640.84;;;14.68;47.39
46756;BME280;32506;52.826;-1.192;2022-09-09T01:45:40;99640.84;;;14.68;47.46
46756;BME280;32506;52.826;-1.192;2022-09-09T01:48:07;99646.47;;;14.67;47.44
46756;BME280;32506;52.826;-1.192;2022-09-09T01:50:33;99640.28;;;14.66;47.60
46756;BME280;32506;52.826;-1.192;2022-09-09T01:52:59;99652.13;;;14.65;47.69
46756;BME280;32506;52.826;-1.192;2022-09-09T01:55:38;99645.91;;;14.65;47.85
46756;BME280;32506;52.826;-1.192;2022-09-09T02:03:32;99654.25;;;14.63;48.28
46756;BME280;32506;52.826;-1.192;2022-09-09T02:08:45;99655.28;;;14.62;48.28
46756;BME280;32506;52.826;-1.192;2022-09-09T02:11:18;99648.03;;;14.63;48.45
46756;BME280;32506;52.826;-1.192;2022-09-09T02:13:46;99646.41;;;14.62;48.17
46756;BME280;32506;52.826;-1.192;2022-09-09T02:16:18;99651.78;;;14.62;48.34
46756;BME280;32506;52.826;-1.192;2022-09-09T02:19:06;99645.34;;;14.63;48.45
46756;BME280;32506;52.826;-1.192;2022-09-09T02:21:34;99641.03;;;14.62;48.24
46756;BME280;32506;52.826;-1.192;2022-09-09T02:24:04;99643.72;;;14.62;48.35
46756;BME280;32506;52.826;-1.192;2022-09-09T02:26:31;99636.72;;;14.60;48.17
46756;BME280;32506;52.826;-1.192;2022-09-09T02:29:00;99636.72;;;14.60;48.10
46756;BME280;32506;52.826;-1.192;2022-09-09T02:31:27;99636.72;;;14.60;48.20
46756;BME280;32506;52.826;-1.192;2022-09-09T02:33:59;99643.16;;;14.59;47.66
46756;BME280;32506;52.826;-1.192;2022-09-09T02:36:29;99637.00;;;14.59;47.84
46756;BME280;32506;52.826;-1.192;2022-09-09T02:38:58;99646.94;;;14.58;47.70
46756;BME280;32506;52.826;-1.192;2022-09-09T02:41:33;99648.81;;;14.58;47.85
46756;BME280;32506;52.826;-1.192;2022-09-09T02:43:59;99642.63;;;14.57;47.88
46756;BME280;32506;52.826;-1.192;2022-09-09T02:57:16;99638.59;;;14.55;47.96
46756;BME280;32506;52.826;-1.192;2022-09-09T02:59:44;99642.59;;;14.52;47.87
46756;BME280;32506;52.826;-1.192;2022-09-09T03:02:10;99638.03;;;14.53;48.07
46756;BME280;32506;52.826;-1.192;2022-09-09T03:04:37;99639.91;;;14.52;48.19
46756;BME280;32506;52.826;-1.192;2022-09-09T03:07:03;99637.22;;;14.52;48.02
46756;BME280;32506;52.826;-1.192;2022-09-09T03:09:29;99644.22;;;14.53;48.28
46756;BME280;32506;52.826;-1.192;2022-09-09T03:11:54;99630.78;;;14.53;48.27
46756;BME280;32506;52.826;-1.192;2022-09-09T03:14:21;99635.34;;;14.53;48.37
46756;BME280;32506;52.826;-1.192;2022-09-09T03:16:50;99638.84;;;14.53;48.25
46756;BME280;32506;52.826;-1.192;2022-09-09T03:19:16;99637.78;;;14.54;48.51
46756;BME280;32506;52.826;-1.192;2022-09-09T03:21:44;99641.28;;;14.55;48.41
46756;BME280;32506;52.826;-1.192;2022-09-09T03:24:09;99645.59;;;14.56;48.50
46756;BME280;32506;52.826;-1.192;2022-09-09T03:26:35;99645.59;;;14.56;48.66
46756;BME280;32506;52.826;-1.192;2022-09-09T03:29:00;99641.00;;;14.56;48.65
46756;BME280;32506;52.826;-1.192;2022-09-09T03:31:26;99650.97;;;14.56;48.65
46756;BME280;32506;52.826;-1.192;2022-09-09T03:33:56;99652.31;;;14.58;48.69
46756;BME280;32506;52.826;-1.192;2022-09-09T03:36:22;99657.72;;;14.58;48.72
46756;BME280;32506;52.826;-1.192;2022-09-09T03:38:48;99657.44;;;14.60;48.77
46756;BME280;32506;52.826;-1.192;2022-09-09T03:41:13;99659.88;;;14.62;48.76
46756;BME280;32506;52.826;-1.192;2022-09-09T03:43:39;99657.97;;;14.62;48.78
46756;BME280;32506;52.826;-1.192;2022-09-09T03:46:05;99659.63;;;14.63;48.71
46756;BME280;32506;52.826;-1.192;2022-09-09T03:48:30;99666.63;;;14.64;48.79
46756;BME280;32506;52.826;-1.192;2022-09-09T03:50:56;99658.28;;;14.66;48.45
46756;BME280;32506;52.826;-1.192;2022-09-09T03:53:23;99659.91;;;14.67;48.64
46756;BME280;32506;52.826;-1.192;2022-09-09T03:55:51;99657.22;;;14.67;48.53
46756;BME280;32506;52.826;-1.192;2022-09-09T03:58:20;99657.22;;;14.67;48.77
46756;BME280;32506;52.826;-1.192;2022-09-09T04:01:03;99662.06;;;14.70;48.60
46756;BME280;32506;52.826;-1.192;2022-09-09T04:03:29;99671.78;;;14.71;48.83
46756;BME280;32506;52.826;-1.192;2022-09-09T04:05:57;99669.09;;;14.71;48.83
46756;BME280;32506;52.826;-1.192;2022-09-09T04:08:23;99672.31;;;14.73;48.67
46756;BME280;32506;52.826;-1.192;2022-09-09T04:10:53;99673.41;;;14.72;48.91
46756;BME280;32506;52.826;-1.192;2022-09-09T04:13:19;99678.50;;;14.73;48.84
46756;BME280;32506;52.826;-1.192;2022-09-09T04:15:51;99684.41;;;14.75;48.88
46756;BME280;32506;52.826;-1.192;2022-09-09T04:18:17;99677.97;;;14.76;49.08
46756;BME280;32506;52.826;-1.192;2022-09-09T04:20:46;99683.91;;;14.79;49.08
46756;BME280;32506;52.826;-1.192;2022-09-09T04:23:12;99682.81;;;14.80;48.96
46756;BME280;32506;52.826;-1.192;2022-09-09T04:25:44;99686.34;;;14.80;49.23
46756;BME280;32506;52.826;-1.192;2022-09-09T04:28:10;99691.44;;;14.82;49.22
46756;BME280;32506;52.826;-1.192;2022-09-09T04:30:35;99687.69;;;14.83;49.40
46756;BME280;32506;52.826;-1.192;2022-09-09T04:33:01;99684.72;;;14.84;49.09
46756;BME280;32506;52.826;-1.192;2022-09-09T04:35:26;99693.34;;;14.86;49.39
46756;BME280;32506;52.826;-1.192;2022-09-09T04:37:52;99689.06;;;14.85;49.58
46756;BME280;32506;52.826;-1.192;2022-09-09T04:40:17;99693.06;;;14.88;49.38
46756;BME280;32506;52.826;-1.192;2022-09-09T04:42:43;99685.81;;;14.88;49.49
46756;BME280;32506;52.826;-1.192;2022-09-09T04:45:09;99688.25;;;14.90;49.60
46756;BME280;32506;52.826;-1.192;2022-09-09T04:47:36;99688.81;;;14.92;49.62
46756;BME280;32506;52.826;-1.192;2022-09-09T04:50:02;99689.59;;;14.92;49.85
46756;BME280;32506;52.826;-1.192;2022-09-09T04:52:27;99687.44;;;14.94;49.78
46756;BME280;32506;52.826;-1.192;2022-09-09T04:54:53;99690.97;;;14.95;49.69
46756;BME280;32506;52.826;-1.192;2022-09-09T04:57:19;99693.38;;;14.97;49.86
46756;BME280;32506;52.826;-1.192;2022-09-09T04:59:44;99692.31;;;14.98;49.74
46756;BME280;32506;52.826;-1.192;2022-09-09T05:02:11;99695.00;;;14.98;49.73
46756;BME280;32506;52.826;-1.192;2022-09-09T05:04:37;99691.00;;;15.00;49.84
46756;BME280;32506;52.826;-1.192;2022-09-09T05:07:02;99693.69;;;15.00;49.72
46756;BME280;32506;52.826;-1.192;2022-09-09T05:09:28;99696.09;;;15.02;49.83
46756;BME280;32506;52.826;-1.192;2022-09-09T05:11:54;99702.00;;;15.04;49.94
46756;BME280;32506;52.826;-1.192;2022-09-09T05:14:20;99699.09;;;15.05;49.85
46756;BME280;32506;52.826;-1.192;2022-09-09T05:16:45;99700.69;;;15.06;49.83
46756;BME280;32506;52.826;-1.192;2022-09-09T05:19:12;99703.09;;;15.08;49.84
46756;BME280;32506;52.826;-1.192;2022-09-09T05:21:37;99710.09;;;15.09;49.72
46756;BME280;32506;52.826;-1.192;2022-09-09T05:24:03;99706.34;;;15.10;49.82
46756;BME280;32506;52.826;-1.192;2022-09-09T05:26:29;99716.03;;;15.11;49.89
46756;BME280;32506;52.826;-1.192;2022-09-09T05:28:54;99713.88;;;15.13;49.69
46756;BME280;32506;52.826;-1.192;2022-09-09T05:31:20;99715.50;;;15.14;49.71
46756;BME280;32506;52.826;-1.192;2022-09-09T05:33:46;99719.56;;;15.17;49.73
46756;BME280;32506;52.826;-1.192;2022-09-09T05:36:17;99714.19;;;15.17;49.73
46756;BME280;32506;52.826;-1.192;2022-09-09T05:38:43;99717.66;;;15.17;49.81
46756;BME280;32506;52.826;-1.192;2022-09-09T05:41:10;99721.72;;;15.20;49.67
46756;BME280;32506;52.826;-1.192;2022-09-09T05:43:37;99719.84;;;15.20;49.50
46756;BME280;32506;52.826;-1.192;2022-09-09T05:46:04;99723.34;;;15.21;49.72
46756;BME280;32506;52.826;-1.192;2022-09-09T05:48:35;99721.44;;;15.21;49.73
46756;BME280;32506;52.826;-1.192;2022-09-09T05:51:03;99726.59;;;15.23;49.71
46756;BME280;32506;52.826;-1.192;2022-09-09T05:53:29;99729.00;;;15.24;49.79
46756;BME280;32506;52.826;-1.192;2022-09-09T05:56:22;99735.75;;;15.27;49.63
46756;BME280;32506;52.826;-1.192;2022-09-09T05:58:49;99734.13;;;15.26;49.46
46756;BME280;32506;52.826;-1.192;2022-09-09T06:01:19;99736.56;;;15.27;49.69
46756;BME280;32506;52.826;-1.192;2022-09-09T06:03:46;99740.03;;;15.28;49.65
46756;BME280;32506;52.826;-1.192;2022-09-09T06:06:20;99745.97;;;15.30;49.87
46756;BME280;32506;52.826;-1.192;2022-09-09T06:08:47;99738.69;;;15.31;49.95
46756;BME280;32506;52.826;-1.192;2022-09-09T06:11:15;99739.53;;;15.31;50.02
46756;BME280;32506;52.826;-1.192;2022-09-09T06:13:41;99746.28;;;15.34;49.89
46756;BME280;32506;52.826;-1.192;2022-09-09T06:16:11;99749.75;;;15.34;50.15
46756;BME280;32506;52.826;-1.192;2022-09-09T06:18:41;99750.56;;;15.35;50.16
46756;BME280;32506;52.826;-1.192;2022-09-09T06:21:11;99753.00;;;15.36;50.17
46756;BME280;32506;52.826;-1.192;2022-09-09T06:23:40;99750.03;;;15.38;50.32
46756;BME280;32506;52.826;-1.192;2022-09-09T06:26:08;99753.28;;;15.40;50.37
46756;BME280;32506;52.826;-1.192;2022-09-09T06:28:35;99759.22;;;15.42;50.66
46756;BME280;32506;52.826;-1.192;2022-09-09T06:31:04;99751.94;;;15.42;50.63
46756;BME280;32506;52.826;-1.192;2022-09-09T06:33:34;99758.94;;;15.43;50.97
46756;BME280;32506;52.826;-1.192;2022-09-09T06:36:01;99754.09;;;15.46;51.12
46756;BME280;32506;52.826;-1.192;2022-09-09T06:38:27;99756.53;;;15.47;51.39
46756;BME280;32506;52.826;-1.192;2022-09-09T06:40:57;99766.22;;;15.48;51.38
46756;BME280;32506;52.826;-1.192;2022-09-09T06:43:24;99767.84;;;15.49;51.51
46756;BME280;32506;52.826;-1.192;2022-09-09T06:45:57;99771.88;;;15.52;51.54
46756;BME280;32506;52.826;-1.192;2022-09-09T06:48:23;99767.28;;;15.52;51.26
46756;BME280;32506;52.826;-1.192;2022-09-09T06:50:59;99770.28;;;15.56;51.38
46756;BME280;32506;52.826;-1.192;2022-09-09T06:53:25;99771.91;;;15.57;51.62
46756;BME280;32506;52.826;-1.192;2022-09-09T06:55:52;99769.75;;;15.59;51.75
46756;BME280;32506;52.826;-1.192;2022-09-09T06:58:18;99773.78;;;15.61;51.96
46756;BME280;32506;52.826;-1.192;2022-09-09T07:00:43;99777.31;;;15.62;51.75
46756;BME280;32506;52.826;-1.192;2022-09-09T07:03:10;99773.00;;;15.66;51.79
46756;BME280;32506;52.826;-1.192;2022-09-09T07:05:35;99771.09;;;15.67;51.64
46756;BME280;32506;52.826;-1.192;2022-09-09T07:08:02;99776.78;;;15.70;51.66
46756;BME280;32506;52.826;-1.192;2022-09-09T07:10:27;99777.56;;;15.71;51.75
46756;BME280;32506;52.826;-1.192;2022-09-09T07:12:53;99778.94;;;15.73;51.89
46756;BME280;32506;52.826;-1.192;2022-09-09T07:15:19;99785.69;;;15.76;52.04
46756;BME280;32506;52.826;-1.192;2022-09-09T07:17:45;99784.59;;;15.77;52.00
46756;BME280;32506;52.826;-1.192;2022-09-09T07:20:11;99790.31;;;15.81;52.15
46756;BME280;32506;52.826;-1.192;2022-09-09T07:22:37;99788.97;;;15.83;51.83
46756;BME280;32506;52.826;-1.192;2022-09-09T07:25:03;99795.69;;;15.86;52.08
46756;BME280;32506;52.826;-1.192;2022-09-09T07:27:29;99793.53;;;15.88;52.41
46756;BME280;32506;52.826;-1.192;2022-09-09T07:29:55;99798.66;;;15.89;52.55
46756;BME280;32506;52.826;-1.192;2022-09-09T07:32:20;99804.34;;;15.93;52.58
46756;BME280;32506;52.826;-1.192;2022-09-09T07:34:46;99801.09;;;15.96;52.56
46756;BME280;32506;52.826;-1.192;2022-09-09T07:37:12;99799.75;;;15.99;52.89
46756;BME280;32506;52.826;-1.192;2022-09-09T07:39:39;99799.22;;;16.02;52.51
46756;BME280;32506;52.826;-1.192;2022-09-09T07:42:05;99812.97;;;16.05;53.24
46756;BME280;32506;52.826;-1.192;2022-09-09T07:44:31;99815.38;;;16.07;52.96
46756;BME280;32506;52.826;-1.192;2022-09-09T07:47:01;99811.91;;;16.12;53.11
46756;BME280;32506;52.826;-1.192;2022-09-09T07:49:26;99809.75;;;16.14;53.20
46756;BME280;32506;52.826;-1.192;2022-09-09T07:51:52;99817.28;;;16.17;53.08
46756;BME280;32506;52.826;-1.192;2022-09-09T07:54:19;99816.75;;;16.20;52.90
46756;BME280;32506;52.826;-1.192;2022-09-09T07:56:49;99821.59;;;16.23;52.95
46756;BME280;32506;52.826;-1.192;2022-09-09T07:59:15;99828.34;;;16.25;53.00
46756;BME280;32506;52.826;-1.192;2022-09-09T08:01:49;99826.72;;;16.30;53.25
46756;BME280;32506;52.826;-1.192;2022-09-09T08:04:18;99833.47;;;16.32;53.04
46756;BME280;32506;52.826;-1.192;2022-09-09T08:06:49;99828.88;;;16.33;53.41
46756;BME280;32506;52.826;-1.192;2022-09-09T08:09:15;99830.78;;;16.37;53.28
46756;BME280;32506;52.826;-1.192;2022-09-09T08:11:41;99827.53;;;16.40;53.50
46756;BME280;32506;52.826;-1.192;2022-09-09T08:14:08;99832.94;;;16.46;53.86
46756;BME280;32506;52.826;-1.192;2022-09-09T08:16:39;99836.72;;;16.50;53.65
46756;BME280;32506;52.826;-1.192;2022-09-09T08:19:05;99840.47;;;16.54;53.85
46756;BME280;32506;52.826;-1.192;2022-09-09T08:21:33;99843.47;;;16.57;54.47
46756;BME280;32506;52.826;-1.192;2022-09-09T08:24:00;99848.84;;;16.63;54.20
46756;BME280;32506;52.826;-1.192;2022-09-09T08:26:31;99846.41;;;16.66;54.22
46756;BME280;32506;52.826;-1.192;2022-09-09T08:28:58;99852.88;;;16.70;54.36
46756;BME280;32506;52.826;-1.192;2022-09-09T08:31:35;99853.16;;;16.74;54.39
46756;BME280;32506;52.826;-1.192;2022-09-09T08:34:02;99848.81;;;16.78;54.46
46756;BME280;32506;52.826;-1.192;2022-09-09T08:36:30;99856.38;;;16.81;54.36
46756;BME280;32506;52.826;-1.192;2022-09-09T08:38:57;99849.09;;;16.87;54.60
46756;BME280;32506;52.826;-1.192;2022-09-09T08:41:38;99859.09;;;16.91;55.09
46756;BME280;32506;52.826;-1.192;2022-09-09T08:55:39;99866.84;;;17.19;55.52
46756;BME280;32506;52.826;-1.192;2022-09-09T08:58:33;99867.94;;;17.23;55.52
46756;BME280;32506;52.826;-1.192;2022-09-09T09:12:26;99881.59;;;17.57;56.16
46756;BME280;32506;52.826;-1.192;2022-09-09T09:14:52;99875.88;;;17.64;56.47
46756;BME280;32506;52.826;-1.192;2022-09-09T09:17:23;99885.03;;;17.73;56.41
46756;BME280;32506;52.826;-1.192;2022-09-09T09:19:50;99885.81;;;17.79;56.46
46756;BME280;32506;52.826;-1.192;2022-09-09T09:22:29;99896.03;;;17.87;56.75
46756;BME280;32506;52.826;-1.192;2022-09-09T09:30:40;99898.38;;;18.09;57.46
46756;BME280;32506;52.826;-1.192;2022-09-09T09:36:15;99905.03;;;18.27;57.42
46756;BME280;32506;52.826;-1.192;2022-09-09T09:39:02;99904.97;;;18.38;57.46
46756;BME280;32506;52.826;-1.192;2022-09-09T09:41:42;99902.22;;;18.43;57.51
46756;BME280;32506;52.826;-1.192;2022-09-09T09:44:27;99914.06;;;18.52;57.69
46756;BME280;32506;52.826;-1.192;2022-09-09T09:47:05;99912.13;;;18.58;57.58
46756;BME280;32506;52.826;-1.192;2022-09-09T09:49:33;99917.78;;;18.61;57.32
46756;BME280;32506;52.826;-1.192;2022-09-09T09:52:03;99920.47;;;18.67;57.32
46756;BME280;32506;52.826;-1.192;2022-09-09T09:54:39;99924.44;;;18.74;57.38
46756;BME280;32506;52.826;-1.192;2022-09-09T09:57:15;99924.69;;;18.78;56.88
46756;BME280;32506;52.826;-1.192;2022-09-09T09:59:42;99925.44;;;18.84;56.88
46756;BME280;32506;52.826;-1.192;2022-09-09T10:02:14;99925.69;;;18.87;56.60
46756;BME280;32506;52.826;-1.192;2022-09-09T10:04:41;99925.16;;;18.90;56.43
46756;BME280;32506;52.826;-1.192;2022-09-09T10:07:11;99923.19;;;18.96;56.48
46756;BME280;32506;52.826;-1.192;2022-09-09T10:09:37;99930.47;;;19.01;56.59
46756;BME280;32506;52.826;-1.192;2022-09-09T10:12:15;99928.22;;;19.08;56.58
46756;BME280;32506;52.826;-1.192;2022-09-09T10:15:07;99930.06;;;19.18;56.74
46756;BME280;32506;52.826;-1.192;2022-09-09T10:20:20;99934.72;;;19.36;57.51
46756;BME280;32506;52.826;-1.192;2022-09-09T10:22:50;99929.72;;;19.49;57.26
46756;BME280;32506;52.826;-1.192;2022-09-09T10:33:48;99938.47;;;20.13;59.32
46756;BME280;32506;52.826;-1.192;2022-09-09T10:36:25;99936.84;;;20.31;59.42
46756;BME280;32506;52.826;-1.192;2022-09-09T10:39:25;99945.25;;;20.49;59.53
46756;BME280;32506;52.826;-1.192;2022-09-09T10:42:16;99937.69;;;20.65;59.33
46756;BME280;32506;52.826;-1.192;2022-09-09T10:55:52;99945.03;;;21.44;59.58
46756;BME280;32506;52.826;-1.192;2022-09-09T10:58:43;99947.19;;;21.61;59.03
46756;BME280;32506;52.826;-1.192;2022-09-09T11:01:19;99946.38;;;21.74;58.92
46756;BME280;32506;52.826;-1.192;2022-09-09T11:03:52;99950.00;;;21.84;57.92
46756;BME280;32506;52.826;-1.192;2022-09-09T11:06:27;99950.59;;;21.94;57.77
46756;BME280;32506;52.826;-1.192;2022-09-09T11:08:55;99951.28;;;22.00;57.80
46756;BME280;32506;52.826;-1.192;2022-09-09T11:11:43;99954.91;;;22.09;57.38
46756;BME280;32506;52.826;-1.192;2022-09-09T11:14:28;99953.50;;;22.12;56.83
46756;BME280;32506;52.826;-1.192;2022-09-09T11:19:33;99957.88;;;22.22;55.91
46756;BME280;32506;52.826;-1.192;2022-09-09T11:22:01;99954.25;;;22.26;55.61
46756;BME280;32506;52.826;-1.192;2022-09-09T11:24:41;99963.59;;;22.34;55.37
46756;BME280;32506;52.826;-1.192;2022-09-09T11:30:32;99957.72;;;22.55;55.80
46756;BME280;32506;52.826;-1.192;2022-09-09T11:42:16;99961.25;;;23.23;55.26
46756;BME280;32506;52.826;-1.192;2022-09-09T11:44:43;99956.63;;;23.33;55.56
46756;BME280;32506;52.826;-1.192;2022-09-09T11:47:24;99961.66;;;23.48;55.26
46756;BME280;32506;52.826;-1.192;2022-09-09T11:49:54;99964.44;;;23.57;54.75
46756;BME280;32506;52.826;-1.192;2022-09-09T11:52:34;99971.19;;;23.68;54.90
46756;BME280;32506;52.826;-1.192;2022-09-09T11:55:27;99964.97;;;23.76;54.33
46756;BME280;32506;52.826;-1.192;2022-09-09T11:57:59;99971.06;;;23.82;54.25
46756;BME280;32506;52.826;-1.192;2022-09-09T12:00:35;99971.75;;;23.88;53.84
46756;BME280;32506;52.826;-1.192;2022-09-09T12:03:03;99980.94;;;23.92;53.57
46756;BME280;32506;52.826;-1.192;2022-09-09T12:05:43;99976.78;;;23.94;53.36
46756;BME280;32506;52.826;-1.192;2022-09-09T12:08:11;99983.19;;;23.99;53.23
46756;BME280;32506;52.826;-1.192;2022-09-09T12:10:40;99978.34;;;23.95;52.50
46756;BME280;32506;52.826;-1.192;2022-09-09T12:13:20;99976.91;;;23.98;52.16
46756;BME280;32506;52.826;-1.192;2022-09-09T12:15:49;99975.81;;;23.99;52.02
46756;BME280;32506;52.826;-1.192;2022-09-09T12:18:23;99976.78;;;24.03;51.88
46756;BME280;32506;52.826;-1.192;2022-09-09T12:23:55;99979.50;;;24.03;50.41
46756;BME280;32506;52.826;-1.192;2022-09-09T12:26:31;99984.31;;;24.06;49.00
46756;BME280;32506;52.826;-1.192;2022-09-09T12:32:00;99980.47;;;24.07;49.45
46756;BME280;32506;52.826;-1.192;2022-09-09T12:34:40;99977.41;;;24.09;49.75
46756;BME280;32506;52.826;-1.192;2022-09-09T12:40:24;99977.13;;;24.19;50.01
46756;BME280;32506;52.826;-1.192;2022-09-09T12:42:50;99981.78;;;24.27;50.28
46756;BME280;32506;52.826;-1.192;2022-09-09T12:48:09;99997.25;;;24.50;50.52
46756;BME280;32506;52.826;-1.192;2022-09-09T12:50:48;99994.81;;;24.57;50.53
46756;BME280;32506;52.826;-1.192;2022-09-09T12:55:50;100003.03;;;24.74;50.37
46756;BME280;32506;52.826;-1.192;2022-09-09T12:58:17;99997.09;;;24.81;50.22
46756;BME280;32506;52.826;-1.192;2022-09-09T13:00:54;99998.03;;;24.85;50.09
46756;BME280;32506;52.826;-1.192;2022-09-09T13:03:22;99996.28;;;24.89;49.89
46756;BME280;32506;52.826;-1.192;2022-09-09T13:05:48;99992.09;;;24.92;49.79
46756;BME280;32506;52.826;-1.192;2022-09-09T13:08:15;99995.31;;;24.94;49.49
46756;BME280;32506;52.826;-1.192;2022-09-09T13:10:51;99987.91;;;24.94;48.76
46756;BME280;32506;52.826;-1.192;2022-09-09T13:13:25;99991.44;;;24.95;48.21
46756;BME280;32506;52.826;-1.192;2022-09-09T13:15:59;99996.28;;;24.98;48.31
46756;BME280;32506;52.826;-1.192;2022-09-09T13:18:30;99997.56;;;25.01;48.59
46756;BME280;32506;52.826;-1.192;2022-09-09T13:20:57;99995.13;;;25.08;48.82
46756;BME280;32506;52.826;-1.192;2022-09-09T13:23:30;99992.38;;;25.17;48.87
46756;BME280;32506;52.826;-1.192;2022-09-09T13:26:23;99997.63;;;25.30;48.94
46756;BME280;32506;52.826;-1.192;2022-09-09T13:28:50;99988.28;;;25.40;49.65
46756;BME280;32506;52.826;-1.192;2022-09-09T13:33:45;99993.81;;;25.70;49.67
46756;BME280;32506;52.826;-1.192;2022-09-09T13:36:12;99993.25;;;25.86;49.99
46756;BME280;32506;52.826;-1.192;2022-09-09T13:41:29;99994.19;;;26.20;50.13
46756;BME280;32506;52.826;-1.192;2022-09-09T13:43:55;99997.47;;;26.34;49.42
46756;BME280;32506;52.826;-1.192;2022-09-09T13:46:33;100003.97;;;26.51;49.35
46756;BME280;32506;52.826;-1.192;2022-09-09T13:49:22;100001.31;;;26.63;49.44
46756;BME280;32506;52.826;-1.192;2022-09-09T13:51:51;100001.50;;;26.79;48.97
46756;BME280;32506;52.826;-1.192;2022-09-09T13:54:27;99994.59;;;26.94;48.70
46756;BME280;32506;52.826;-1.192;2022-09-09T13:56:52;99989.25;;;27.10;48.73
46756;BME280;32506;52.826;-1.192;2022-09-09T13:59:20;99995.72;;;27.26;48.38
46756;BME280;32506;52.826;-1.192;2022-09-09T14:01:47;100001.38;;;27.42;48.39
46756;BME280;32506;52.826;-1.192;2022-09-09T14:04:12;99999.75;;;27.54;47.82
46756;BME280;32506;52.826;-1.192;2022-09-09T14:06:38;100004.13;;;27.67;47.86
46756;BME280;32506;52.826;-1.192;2022-09-09T14:09:06;99997.03;;;27.78;47.14
46756;BME280;32506;52.826;-1.192;2022-09-09T14:11:31;99999.31;;;27.89;46.69
46756;BME280;32506;52.826;-1.192;2022-09-09T14:13:57;99997.94;;;27.95;46.54
46756;BME280;32506;52.826;-1.192;2022-09-09T14:16:22;100010.31;;;28.01;46.47
46756;BME280;32506;52.826;-1.192;2022-09-09T14:18:48;100023.38;;;28.04;46.51
46756;BME280;32506;52.826;-1.192;2022-09-09T14:21:13;100034.78;;;28.06;45.48
46756;BME280;32506;52.826;-1.192;2022-09-09T14:23:40;100039.50;;;28.06;43.41
46756;BME280;32506;52.826;-1.192;2022-09-09T14:26:06;100040.97;;;28.03;41.62
46756;BME280;32506;52.826;-1.192;2022-09-09T14:28:32;100038.44;;;27.98;41.39
46756;BME280;32506;52.826;-1.192;2022-09-09T14:31:03;100048.84;;;27.92;40.77
46756;BME280;32506;52.826;-1.192;2022-09-09T14:33:29;100040.84;;;27.87;40.81
46756;BME280;32506;52.826;-1.192;2022-09-09T14:35:59;100045.28;;;27.79;40.64
46756;BME280;32506;52.826;-1.192;2022-09-09T14:38:28;100052.03;;;27.70;40.98
46756;BME280;32506;52.826;-1.192;2022-09-09T14:40:54;100065.84;;;27.61;40.77
46756;BME280;32506;52.826;-1.192;2022-09-09T14:43:19;100065.97;;;27.52;40.20
46756;BME280;32506;52.826;-1.192;2022-09-09T14:45:46;100078.97;;;27.43;40.20
46756;BME280;32506;52.826;-1.192;2022-09-09T14:48:13;100079.72;;;27.31;40.60
46756;BME280;32506;52.826;-1.192;2022-09-09T14:50:40;100089.16;;;27.21;40.29
46756;BME280;32506;52.826;-1.192;2022-09-09T14:53:06;100095.06;;;27.11;40.45
46756;BME280;32506;52.826;-1.192;2022-09-09T14:55:32;100101.78;;;27.01;40.35
46756;BME280;32506;52.826;-1.192;2022-09-09T14:57:57;100086.06;;;26.89;40.35
46756;BME280;32506;52.826;-1.192;2022-09-09T15:00:24;100089.19;;;26.79;40.30
46756;BME280;32506;52.826;-1.192;2022-09-09T15:02:54;100096.19;;;26.68;40.25
46756;BME280;32506;52.826;-1.192;2022-09-09T15:05:21;100091.09;;;26.57;40.77
46756;BME280;32506;52.826;-1.192;2022-09-09T15:07:46;100082.47;;;26.46;40.38
46756;BME280;32506;52.826;-1.192;2022-09-09T15:10:14;100080.44;;;26.35;40.49
46756;BME280;32506;52.826;-1.192;2022-09-09T15:12:39;100078.09;;;26.24;40.56
46756;BME280;32506;52.826;-1.192;2022-09-09T15:15:07;100076.88;;;26.13;40.72